Time;durP1;ratioP1;P1;durP2;ratioP2;P2;SDS_P1;SDS_P2;PMS_P1;PMS_P2;Temp;Humidity;BMP_temperature;BMP_pressure;BME280_temperature;BME280_humidity;BME280_pressure;Samples;Min_cycle;Max_cycle;Signal;HPM_P1;HPM_P2
2022/06/03 00:02:28;;;;;;;4.20;2.43;;;;;;;16.87;100.00;96252.03;5064007;28;20304;-86
2022/06/03 00:05:19;;;;;;;4.67;2.80;;;;;;;16.89;100.00;96266.22;5011197;28;20296;-86
2022/06/03 00:08:04;;;;;;;6.47;3.50;;;;;;;16.86;100.00;96279.56;5062327;28;20221;-87
2022/06/03 00:10:53;;;;;;;4.60;2.57;;;;;;;16.96;100.00;96288.56;5066211;28;20223;-86
2022/06/03 00:13:41;;;;;;;4.47;2.50;;;;;;;16.94;100.00;96293.47;5052449;28;20315;-86
2022/06/03 00:16:20;;;;;;;2.87;2.00;;;;;;;16.93;100.00;96280.09;5047937;28;20229;-86
2022/06/03 00:19:17;;;;;;;5.20;2.27;;;;;;;16.99;100.00;96279.84;5048690;28;20300;-87
2022/06/03 00:22:05;;;;;;;4.80;2.00;;;;;;;17.03;100.00;96285.56;5064206;28;20292;-86
2022/06/03 00:24:56;;;;;;;3.50;2.43;;;;;;;17.06;100.00;96298.69;5054325;28;20212;-86
2022/06/03 00:27:51;;;;;;;2.30;2.10;;;;;;;17.09;100.00;96297.31;5055597;28;20214;-86
2022/06/03 00:30:54;;;;;;;3.87;2.27;;;;;;;16.95;100.00;96305.19;5055449;28;20215;-86
2022/06/03 00:33:41;;;;;;;3.40;2.60;;;;;;;16.84;100.00;96295.41;5046036;28;20222;-86
2022/06/03 00:36:45;;;;;;;5.77;2.23;;;;;;;16.85;100.00;96299.72;5062883;28;20260;-86
2022/06/03 00:39:32;;;;;;;3.50;2.53;;;;;;;16.79;100.00;96306.28;5045826;28;20297;-86
2022/06/03 00:42:18;;;;;;;3.73;2.40;;;;;;;16.64;100.00;96286.09;5063951;28;20244;-86
2022/06/03 00:45:17;;;;;;;2.50;2.30;;;;;;;16.71;100.00;96294.00;5050245;28;20205;-86
2022/06/03 00:48:00;;;;;;;4.07;2.60;;;;;;;16.72;100.00;96294.81;5038089;28;20229;-86
2022/06/03 00:50:55;;;;;;;6.90;2.30;;;;;;;16.63;100.00;96292.63;5062060;28;20216;-86
2022/06/03 00:53:44;;;;;;;4.60;2.37;;;;;;;16.54;100.00;96283.31;5048883;28;20222;-86
2022/06/03 00:56:33;;;;;;;3.50;2.53;;;;;;;16.45;100.00;96278.66;5029828;28;20582;-86
2022/06/03 00:59:19;;;;;;;5.17;2.53;;;;;;;16.31;100.00;96289.25;5047925;28;20198;-86
2022/06/03 01:02:04;;;;;;;4.00;2.43;;;;;;;16.25;100.00;96282.94;5045232;28;20266;-86
2022/06/03 01:04:50;;;;;;;3.43;2.30;;;;;;;16.25;100.00;96293.03;5052001;28;20205;-86
2022/06/03 01:07:24;;;;;;;3.23;2.20;;;;;;;16.20;100.00;96273.94;5048516;28;20276;-86
2022/06/03 01:10:07;;;;;;;8.60;2.50;;;;;;;16.25;100.00;96285.66;5063313;28;20201;-86
2022/06/03 01:13:02;;;;;;;4.20;2.20;;;;;;;16.16;100.00;96289.19;5035768;28;20340;-86
2022/06/03 01:15:38;;;;;;;4.40;2.40;;;;;;;16.14;100.00;96285.91;5039735;28;20267;-86
2022/06/03 01:18:19;;;;;;;5.43;2.40;;;;;;;16.16;100.00;96281.03;5045190;28;20205;-85
2022/06/03 01:21:01;;;;;;;3.97;2.27;;;;;;;16.23;100.00;96276.97;5051122;28;20210;-86
2022/06/03 01:23:54;;;;;;;3.63;2.30;;;;;;;16.19;100.00;96258.69;5042005;28;20206;-87
2022/06/03 01:26:56;;;;;;;3.37;2.20;;;;;;;16.10;100.00;96252.94;5051493;28;20283;-85
2022/06/03 01:29:35;;;;;;;3.80;2.73;;;;;;;16.07;100.00;96245.31;5045147;28;20271;-86
2022/06/03 01:32:40;;;;;;;2.30;2.10;;;;;;;16.21;100.00;96251.06;5046858;28;20236;-86
2022/06/03 01:35:31;;;;;;;4.60;2.10;;;;;;;16.35;100.00;96235.84;5047001;28;20288;-86
2022/06/03 01:38:05;;;;;;;3.77;2.30;;;;;;;16.40;100.00;96248.66;5064329;28;20201;-85
2022/06/03 01:41:03;;;;;;;3.23;2.03;;;;;;;16.49;100.00;96257.97;5048535;28;20202;-86
2022/06/03 01:43:52;;;;;;;3.67;2.03;;;;;;;16.49;100.00;96256.06;5043320;28;20233;-85
2022/06/03 01:46:29;;;;;;;7.00;2.00;;;;;;;16.48;100.00;96265.31;5055658;28;20228;-86
2022/06/03 01:49:31;;;;;;;3.77;2.00;;;;;;;16.53;100.00;96262.59;5048659;28;20213;-86
2022/06/03 01:52:46;;;;;;;2.17;1.97;;;;;;;16.55;100.00;96276.75;5044661;28;20213;-86
2022/06/03 01:55:44;;;;;;;2.63;2.07;;;;;;;16.58;100.00;96278.97;4968101;28;20299;-86
2022/06/03 01:58:30;;;;;;;2.20;2.00;;;;;;;16.59;100.00;96269.66;5045385;28;20282;-87
2022/06/03 02:01:10;;;;;;;3.03;2.20;;;;;;;16.49;100.00;96275.13;5048035;28;20229;-86
2022/06/03 02:03:53;;;;;;;2.60;2.20;;;;;;;16.41;100.00;96267.47;5049421;28;20205;-86
2022/06/03 02:07:04;;;;;;;2.97;1.90;;;;;;;16.38;100.00;96275.34;5048817;28;20300;-86
2022/06/03 02:10:00;;;;;;;4.50;2.07;;;;;;;16.30;100.00;96267.72;5005839;28;20304;-86
2022/06/03 02:12:48;;;;;;;2.87;2.20;;;;;;;16.24;100.00;96277.78;5013720;28;20213;-86
2022/06/03 02:16:11;;;;;;;4.80;2.10;;;;;;;16.22;100.00;96277.22;5044082;28;20362;-86
2022/06/03 02:19:11;;;;;;;3.37;2.20;;;;;;;16.20;100.00;96263.03;4958910;28;20219;-87
2022/06/03 02:21:52;;;;;;;3.40;2.03;;;;;;;16.21;100.00;96267.41;5042147;28;20209;-86
2022/06/03 02:24:56;;;;;;;2.60;2.40;;;;;;;16.22;100.00;96285.41;5040025;28;20229;-86
2022/06/03 02:27:49;;;;;;;2.63;2.43;;;;;;;16.22;100.00;96293.56;5010797;28;20258;-86
2022/06/03 02:30:44;;;;;;;2.20;2.00;;;;;;;16.20;100.00;96295.75;5043038;28;20214;-86
2022/06/03 02:33:47;;;;;;;6.80;2.83;;;;;;;16.17;100.00;96290.81;5060797;28;20212;-86
2022/06/03 02:36:58;;;;;;;4.47;2.20;;;;;;;16.19;100.00;96285.91;5043177;28;20293;-86
2022/06/03 02:39:58;;;;;;;5.97;2.47;;;;;;;16.15;100.00;96282.94;5064136;28;20254;-86
2022/06/03 02:42:48;;;;;;;6.27;2.50;;;;;;;16.05;100.00;96288.34;5060007;28;20242;-86
2022/06/03 02:45:37;;;;;;;4.43;2.77;;;;;;;16.00;100.00;96292.91;5047664;28;20210;-87
2022/06/03 02:48:51;;;;;;;3.63;2.40;;;;;;;15.94;100.00;96288.53;5059590;28;20218;-86
2022/06/03 02:51:27;;;;;;;4.10;2.40;;;;;;;15.93;100.00;96276.00;4983998;28;20212;-86
2022/06/03 02:54:30;;;;;;;3.23;2.20;;;;;;;15.95;100.00;96277.38;5046233;28;20221;-86
2022/06/03 02:57:32;;;;;;;4.03;2.67;;;;;;;15.91;100.00;96284.44;5054147;28;20244;-85
2022/06/03 03:00:19;;;;;;;2.97;2.20;;;;;;;15.86;100.00;96284.44;5053626;28;20210;-86
2022/06/03 03:03:10;;;;;;;4.83;2.50;;;;;;;15.89;100.00;96286.63;5036022;28;20298;-86
2022/06/03 03:06:09;;;;;;;4.37;2.10;;;;;;;15.95;100.00;96296.44;5066387;28;20218;-86
2022/06/03 03:08:58;;;;;;;4.03;2.60;;;;;;;15.92;100.00;96287.97;5043745;28;20380;-86
2022/06/03 03:11:53;;;;;;;3.53;2.30;;;;;;;15.99;100.00;96296.75;5052084;28;20302;-86
2022/06/03 03:15:02;;;;;;;3.33;2.50;;;;;;;15.89;100.00;96287.44;5048576;28;20279;-86
2022/06/03 03:18:32;;;;;;;3.80;2.60;;;;;;;15.81;100.00;96289.84;5007576;28;20324;-85
2022/06/03 03:21:23;;;;;;;3.47;2.87;;;;;;;15.72;100.00;96303.16;4898656;29;20218;-85
2022/06/03 03:24:30;;;;;;;4.87;2.33;;;;;;;15.73;100.00;96290.34;4968968;28;20218;-86
2022/06/03 03:27:15;;;;;;;3.17;2.60;;;;;;;15.68;100.00;96280.25;5052714;28;20205;-86
2022/06/03 03:30:13;;;;;;;2.53;2.17;;;;;;;15.62;100.00;96297.63;5051605;28;20253;-86
2022/06/03 03:32:58;;;;;;;3.53;2.40;;;;;;;15.55;100.00;96293.53;5033076;28;20248;-85
2022/06/03 03:35:46;;;;;;;5.20;2.37;;;;;;;15.62;100.00;96292.19;5069008;28;20225;-85
2022/06/03 03:38:59;;;;;;;5.30;2.73;;;;;;;15.54;100.00;96279.09;5064851;28;20229;-85
2022/06/03 03:42:03;;;;;;;3.60;2.17;;;;;;;15.50;100.00;96288.81;5023000;28;20242;-86
2022/06/03 03:45:21;;;;;;;2.90;2.60;;;;;;;15.52;100.00;96292.09;5049987;28;20213;-86
2022/06/03 03:48:31;;;;;;;3.93;2.60;;;;;;;15.47;100.00;96281.19;5064943;28;20215;-86
2022/06/03 03:51:19;;;;;;;3.77;2.87;;;;;;;15.45;100.00;96277.91;5050358;28;20214;-86
2022/06/03 03:54:22;;;;;;;4.10;2.80;;;;;;;15.44;100.00;96287.16;5065720;28;20217;-86
2022/06/03 03:57:23;;;;;;;5.73;3.57;;;;;;;15.43;100.00;96274.63;5063523;28;20217;-86
2022/06/03 04:00:15;;;;;;;4.13;2.57;;;;;;;15.39;100.00;96271.63;5050056;28;20221;-86
2022/06/03 04:03:18;;;;;;;3.23;2.60;;;;;;;15.40;100.00;96273.25;5066636;28;20210;-86
2022/06/03 04:06:25;;;;;;;4.90;2.67;;;;;;;15.46;100.00;96276.84;5045655;28;20197;-85
2022/06/03 04:09:25;;;;;;;32.37;2.87;;;;;;;15.48;100.00;96272.75;5065144;28;20214;-86
2022/06/03 04:12:07;;;;;;;3.20;2.37;;;;;;;15.50;100.00;96259.69;5046637;28;20268;-86
2022/06/03 04:15:12;;;;;;;2.60;2.33;;;;;;;15.65;100.00;96252.75;5048809;28;20256;-85
2022/06/03 04:17:59;;;;;;;3.70;2.80;;;;;;;15.68;100.00;96253.03;5045789;28;20221;-87
2022/06/03 04:20:45;;;;;;;7.00;3.00;;;;;;;15.81;100.00;96254.47;5065535;28;20240;-86
2022/06/03 04:23:48;;;;;;;4.03;2.73;;;;;;;15.72;100.00;96254.16;5059601;28;20213;-87
2022/06/03 04:26:41;;;;;;;5.47;2.80;;;;;;;15.66;100.00;96255.19;5051751;28;20206;-87
2022/06/03 04:29:39;;;;;;;4.63;2.83;;;;;;;15.72;100.00;96265.03;5062774;28;20268;-87
2022/06/03 04:32:39;;;;;;;3.03;2.73;;;;;;;15.76;100.00;96260.69;5059171;28;20206;-87
2022/06/03 04:35:40;;;;;;;6.70;2.70;;;;;;;15.73;100.00;96260.41;5049659;28;20294;-86
2022/06/03 04:38:53;;;;;;;4.07;2.40;;;;;;;15.77;100.00;96256.88;5050697;28;20208;-87
2022/06/03 04:42:02;;;;;;;4.37;2.70;;;;;;;15.72;100.00;96265.03;5046246;28;20244;-87
2022/06/03 04:45:13;;;;;;;3.73;3.13;;;;;;;15.70;100.00;96250.88;5054259;28;20190;-87
2022/06/03 04:48:17;;;;;;;3.17;2.50;;;;;;;15.77;100.00;96262.34;4998966;28;20210;-86
2022/06/03 04:51:25;;;;;;;8.07;2.80;;;;;;;15.79;100.00;96254.72;5049988;28;20205;-86
2022/06/03 04:54:27;;;;;;;5.93;2.60;;;;;;;15.77;100.00;96246.00;5049267;28;20302;-86
2022/06/03 04:57:25;;;;;;;8.73;3.33;;;;;;;15.70;100.00;96250.88;5063566;28;20247;-86
2022/06/03 05:00:17;;;;;;;6.40;3.03;;;;;;;15.68;100.00;96241.31;5048287;28;20207;-86
2022/06/03 05:03:38;;;;;;;4.83;2.93;;;;;;;15.72;100.00;96243.25;5066569;28;20216;-87
2022/06/03 05:06:51;;;;;;;3.23;2.80;;;;;;;15.74;100.00;96235.63;5030970;28;20202;-86
2022/06/03 05:10:03;;;;;;;4.73;2.93;;;;;;;15.81;100.00;96236.22;5060163;28;20231;-86
2022/06/03 05:13:08;;;;;;;4.33;3.00;;;;;;;15.81;100.00;96240.84;5049932;28;20260;-86
2022/06/03 05:16:26;;;;;;;5.30;3.20;;;;;;;15.95;100.00;96241.16;5050560;28;20279;-86
2022/06/03 05:19:41;;;;;;;4.97;2.80;;;;;;;16.06;100.00;96226.50;5046208;28;20208;-86
2022/06/03 05:22:47;;;;;;;3.07;2.67;;;;;;;16.08;100.00;96229.75;5047201;28;20587;-85
2022/06/03 05:25:45;;;;;;;3.70;2.53;;;;;;;16.23;100.00;96219.75;5058596;28;20208;-85
2022/06/03 05:28:34;;;;;;;4.17;2.83;;;;;;;16.27;100.00;96215.38;5066543;28;20264;-85
2022/06/03 05:31:48;;;;;;;4.73;3.03;;;;;;;16.35;100.00;96224.94;5046740;28;20210;-85
2022/06/03 05:34:45;;;;;;;3.93;3.10;;;;;;;16.44;100.00;96217.03;5064285;28;20251;-87
2022/06/03 05:37:43;;;;;;;5.63;2.93;;;;;;;16.49;100.00;96207.00;5064137;28;20235;-87
2022/06/03 05:40:34;;;;;;;5.73;2.77;;;;;;;16.52;100.00;96198.25;5046080;28;20206;-86
2022/06/03 05:43:20;;;;;;;5.83;3.00;;;;;;;16.60;100.00;96205.88;5068215;28;20204;-87
2022/06/03 05:46:15;;;;;;;4.57;2.90;;;;;;;16.68;100.00;96196.38;5059629;28;20209;-87
2022/06/03 05:49:12;;;;;;;4.33;3.00;;;;;;;16.80;100.00;96198.84;5067836;28;20224;-87
2022/06/03 05:52:11;;;;;;;3.50;2.87;;;;;;;16.79;100.00;96189.03;5061132;28;20206;-87
2022/06/03 05:55:00;;;;;;;4.30;3.10;;;;;;;16.78;100.00;96184.66;5067667;28;20233;-87
2022/06/03 05:57:38;;;;;;;4.40;3.20;;;;;;;16.81;100.00;96189.56;5030149;28;20259;-86
2022/06/03 06:00:40;;;;;;;4.73;2.70;;;;;;;16.84;100.00;96199.94;5058461;28;20212;-86
2022/06/03 06:03:24;;;;;;;6.23;2.80;;;;;;;17.00;100.00;96185.22;5062483;28;20205;-88
2022/06/03 06:06:02;;;;;;;7.13;2.80;;;;;;;17.06;100.00;96177.81;5063890;28;20181;-86
2022/06/03 06:08:36;;;;;;;3.57;2.80;;;;;;;17.17;100.00;96185.72;5049280;28;20205;-86
2022/06/03 06:11:14;;;;;;;4.03;2.43;;;;;;;17.23;100.00;96186.53;5060153;28;20229;-87
2022/06/03 06:14:16;;;;;;;5.87;2.80;;;;;;;17.37;100.00;96177.47;5043721;28;20212;-86
2022/06/03 06:16:44;;;;;;;3.80;2.50;;;;;;;17.46;100.00;96183.19;5045766;28;20236;-87
2022/06/03 06:19:16;;;;;;;4.70;2.80;;;;;;;17.58;100.00;96175.50;5061865;28;20202;-87
2022/06/03 06:22:05;;;;;;;5.53;2.67;;;;;;;17.63;100.00;96171.97;5064081;28;20198;-87
2022/06/03 06:24:51;;;;;;;6.13;2.97;;;;;;;17.66;100.00;96171.41;5035537;28;20210;-87
2022/06/03 06:27:54;;;;;;;8.67;3.20;;;;;;;17.61;100.00;96169.47;5046663;28;20332;-87
2022/06/03 06:30:38;;;;;;;6.67;3.33;;;;;;;17.69;100.00;96157.22;5047448;28;20202;-88
2022/06/03 06:33:40;;;;;;;6.07;3.20;;;;;;;17.83;100.00;96169.16;5048551;28;20240;-89
2022/06/03 06:36:32;;;;;;;11.43;4.10;;;;;;;17.85;100.00;96150.59;5059985;28;20229;-88
2022/06/03 06:39:15;;;;;;;5.10;2.83;;;;;;;17.88;100.00;96149.19;5050525;28;20266;-86
2022/06/03 06:41:49;;;;;;;6.93;3.60;;;;;;;17.96;100.00;96154.06;5053028;28;20328;-88
2022/06/03 06:44:33;;;;;;;5.93;2.73;;;;;;;17.95;100.00;96155.19;5047983;28;20205;-88
2022/06/03 06:47:11;;;;;;;4.60;2.60;;;;;;;18.03;100.00;96157.31;5050266;28;20201;-87
2022/06/03 06:49:44;;;;;;;3.50;2.67;;;;;;;18.02;100.00;96153.75;5052396;28;20308;-89
2022/06/03 06:52:41;;;;;;;8.20;3.60;;;;;;;18.12;100.00;96150.13;5047607;28;20438;-88
2022/06/03 06:55:16;;;;;;;4.00;3.40;;;;;;;18.11;100.00;96148.53;5048388;28;20221;-88
2022/06/03 06:57:47;;;;;;;5.87;3.20;;;;;;;18.02;100.00;96144.75;5050009;28;20295;-88
2022/06/03 07:00:24;;;;;;;7.07;3.40;;;;;;;17.97;100.00;96147.50;5041438;28;20194;-87
2022/06/03 07:02:56;;;;;;;6.67;3.17;;;;;;;17.86;100.00;96141.28;5066673;28;20197;-88
2022/06/03 07:05:31;;;;;;;8.10;3.43;;;;;;;17.86;100.00;96141.28;5054828;28;20206;-88
2022/06/03 07:08:05;;;;;;;6.50;3.40;;;;;;;17.84;100.00;96153.59;5051127;28;20234;-88
2022/06/03 07:10:40;;;;;;;5.70;3.10;;;;;;;17.79;100.00;96135.28;5045796;28;20201;-87
2022/06/03 07:13:15;;;;;;;6.37;3.60;;;;;;;17.84;100.00;96132.56;5069284;28;20234;-87
2022/06/03 07:15:54;;;;;;;5.57;3.27;;;;;;;18.25;100.00;96143.22;5060283;28;20247;-87
2022/06/03 07:21:34;;;;;;;4.37;3.20;;;;;;;19.01;100.00;96140.72;5048455;28;20202;-88
2022/06/03 07:24:08;;;;;;;4.38;3.45;;;;;;;19.34;100.00;96140.91;5053462;28;20208;-87
2022/06/03 07:26:38;;;;;;;8.18;3.90;;;;;;;19.61;100.00;96149.41;5055212;28;20205;-89
2022/06/03 07:29:12;;;;;;;7.30;3.83;;;;;;;19.86;100.00;96140.03;5038636;28;20202;-88
2022/06/03 07:31:48;;;;;;;5.18;3.22;;;;;;;20.19;98.16;96139.03;5048502;28;20198;-88
2022/06/03 07:34:22;;;;;;;4.80;3.25;;;;;;;20.53;94.93;96147.06;5046111;28;20271;-89
2022/06/03 07:36:55;;;;;;;7.63;2.83;;;;;;;20.83;93.60;96132.03;5049623;28;20295;-88
2022/06/03 07:39:34;;;;;;;8.27;3.03;;;;;;;21.13;91.96;96126.00;5065856;28;20216;-89
2022/06/03 07:42:08;;;;;;;5.68;2.92;;;;;;;21.44;88.27;96120.75;5061909;28;20278;-89
2022/06/03 07:44:47;;;;;;;4.20;2.80;;;;;;;21.53;85.46;96123.59;5050614;28;20206;-90
2022/06/03 07:47:18;;;;;;;4.70;3.17;;;;;;;21.71;86.45;96111.69;5061190;28;20221;-86
2022/06/03 07:49:54;;;;;;;5.00;2.88;;;;;;;21.98;85.41;96118.31;5046533;28;20268;-86
2022/06/03 07:52:28;;;;;;;5.03;2.92;;;;;;;22.25;85.73;96108.06;5046667;28;20213;-86
2022/06/03 07:54:57;;;;;;;5.75;3.00;;;;;;;22.22;79.97;96103.19;5055876;28;20206;-89
2022/06/03 07:57:28;;;;;;;4.57;2.80;;;;;;;22.21;79.07;96095.22;5048898;28;20198;-88
2022/06/03 07:59:58;;;;;;;3.10;2.60;;;;;;;22.25;78.21;96090.75;5066762;28;20241;-89
2022/06/03 08:02:26;;;;;;;3.40;2.80;;;;;;;22.18;78.72;96093.94;5044674;28;20214;-88
2022/06/03 08:05:06;;;;;;;5.85;2.70;;;;;;;22.23;76.61;96087.50;5058591;28;20206;-88
2022/06/03 08:13:11;;;;;;;5.50;2.67;;;;;;;22.46;77.22;96071.81;5066109;28;20300;-86
2022/06/03 08:15:40;;;;;;;5.72;2.30;;;;;;;22.57;76.10;96078.69;5063017;28;20226;-86
2022/06/03 08:18:09;;;;;;;6.22;2.72;;;;;;;22.54;76.11;96069.13;5051721;28;20201;-86
2022/06/03 08:20:42;;;;;;;3.38;2.75;;;;;;;22.47;78.52;96063.25;5048051;28;20308;-86
2022/06/03 08:23:10;;;;;;;4.47;3.03;;;;;;;22.44;78.93;96063.88;5056375;28;20206;-86
2022/06/03 08:25:41;;;;;;;3.67;2.78;;;;;;;22.54;78.02;96049.84;5059063;28;20202;-86
2022/06/03 08:28:14;;;;;;;4.60;2.90;;;;;;;22.64;75.83;96040.53;5049725;28;20348;-86
2022/06/03 08:30:45;;;;;;;5.13;3.28;;;;;;;22.74;76.74;96026.53;5063771;28;20204;-86
2022/06/03 08:33:18;;;;;;;4.55;3.05;;;;;;;22.93;78.00;96021.63;5052475;28;20210;-87
2022/06/03 08:35:50;;;;;;;9.07;3.05;;;;;;;23.07;78.54;95998.69;5053514;28;20238;-86
2022/06/03 08:38:20;;;;;;;10.07;2.63;;;;;;;23.05;77.93;96001.78;5051736;28;20216;-86
2022/06/03 08:40:58;;;;;;;6.30;3.05;;;;;;;23.09;79.84;95988.16;5052555;28;20217;-87
2022/06/03 08:43:33;;;;;;;6.55;2.80;;;;;;;23.31;78.29;95985.31;5055522;28;20198;-86
2022/06/03 08:46:08;;;;;;;3.95;2.88;;;;;;;23.39;80.67;95982.56;5046436;28;20204;-86
2022/06/03 08:48:40;;;;;;;3.25;2.95;;;;;;;23.56;80.86;95953.47;5063886;28;20224;-87
2022/06/03 08:51:15;;;;;;;6.72;3.20;;;;;;;23.67;79.68;95961.09;5064030;28;20209;-88
2022/06/03 08:53:50;;;;;;;4.05;3.40;;;;;;;23.78;79.52;95964.34;5058424;28;20204;-86
2022/06/03 08:56:22;;;;;;;6.82;3.78;;;;;;;24.16;67.53;95947.94;5037649;28;20375;-86
2022/06/03 08:58:58;;;;;;;6.60;3.97;;;;;;;25.07;58.62;95941.25;5060954;28;20197;-87
2022/06/03 09:01:35;;;;;;;5.88;3.53;;;;;;;26.16;51.69;95966.88;5044439;28;20246;-87
2022/06/03 09:04:12;;;;;;;5.25;3.90;;;;;;;26.91;49.24;95956.53;5044667;28;20263;-86
2022/06/03 09:06:48;;;;;;;4.32;3.83;;;;;;;27.41;45.68;95953.41;5050060;28;20193;-87
2022/06/03 09:09:25;;;;;;;7.78;3.92;;;;;;;27.75;46.81;95941.03;5066242;28;20219;-87
2022/06/03 09:12:03;;;;;;;6.22;3.80;;;;;;;27.95;45.22;95949.56;5048504;28;20247;-89
2022/06/03 09:14:33;;;;;;;6.93;4.10;;;;;;;28.20;43.92;95942.78;5049801;28;20245;-87
2022/06/03 09:17:08;;;;;;;4.97;3.80;;;;;;;28.28;41.05;95930.72;5044404;28;20225;-87
2022/06/03 09:19:41;;;;;;;7.80;4.10;;;;;;;28.33;41.41;95916.56;5062068;28;20201;-87
2022/06/03 09:22:14;;;;;;;6.38;3.63;;;;;;;28.41;40.33;95914.81;5063881;28;20292;-86
2022/06/03 09:24:43;;;;;;;7.72;3.72;;;;;;;28.50;41.57;95907.91;5064032;28;20213;-87
2022/06/03 09:27:13;;;;;;;4.10;3.70;;;;;;;28.56;40.30;95900.16;5062897;28;20190;-87
2022/06/03 09:29:46;;;;;;;6.70;4.20;;;;;;;28.59;41.26;95894.66;5063943;28;20209;-86
2022/06/03 09:32:13;;;;;;;6.60;4.25;;;;;;;28.69;42.21;95900.88;5049214;28;20216;-87
2022/06/03 09:34:43;;;;;;;6.82;3.85;;;;;;;28.84;40.95;95897.31;5064067;28;20271;-86
2022/06/03 09:37:16;;;;;;;3.97;3.53;;;;;;;28.97;40.01;95901.63;5042997;28;20271;-87
2022/06/03 09:39:45;;;;;;;4.68;4.05;;;;;;;29.04;39.62;95904.59;5049167;28;20190;-87
2022/06/03 09:42:14;;;;;;;5.97;3.70;;;;;;;29.14;39.45;95904.03;5059561;28;20229;-87
2022/06/03 09:44:42;;;;;;;7.57;3.83;;;;;;;29.11;37.91;95903.94;5043152;28;20202;-87
2022/06/03 09:47:12;;;;;;;5.53;4.50;;;;;;;29.26;38.69;95906.69;5063262;28;20202;-87
2022/06/03 09:49:41;;;;;;;6.38;3.90;;;;;;;29.19;38.11;95903.75;5025685;28;20281;-87
2022/06/03 09:52:13;;;;;;;6.45;3.97;;;;;;;29.25;38.22;95907.91;5066464;28;20335;-86
2022/06/03 09:54:43;;;;;;;5.45;3.70;;;;;;;29.27;37.60;95897.19;5046327;28;20209;-86
2022/06/03 09:57:15;;;;;;;8.30;3.85;;;;;;;29.43;36.85;95890.84;5051129;28;20217;-87
2022/06/03 09:59:51;;;;;;;6.32;4.20;;;;;;;29.47;38.13;95891.72;5044182;28;20268;-87
2022/06/03 10:02:18;;;;;;;11.77;4.20;;;;;;;29.47;38.39;95900.06;5051565;28;20277;-87
2022/06/03 10:04:45;;;;;;;8.73;4.20;;;;;;;29.48;38.35;95883.03;5046312;28;20205;-87
2022/06/03 10:07:13;;;;;;;6.95;4.18;;;;;;;29.35;37.04;95889.81;5063494;28;20339;-87
2022/06/03 10:18:02;;;;;;;6.43;4.10;;;;;;;29.21;36.55;95898.66;5043578;28;20213;-87
2022/06/03 10:20:30;;;;;;;10.52;4.72;;;;;;;29.08;37.62;95904.69;5041878;28;20202;-87
2022/06/03 10:22:59;;;;;;;7.18;4.22;;;;;;;29.08;37.67;95896.34;5048714;28;20205;-87
2022/06/03 10:25:28;;;;;;;6.45;3.78;;;;;;;29.04;37.85;95896.25;5045596;28;20209;-88
2022/06/03 10:27:55;;;;;;;7.95;3.97;;;;;;;29.04;37.40;95898.22;5055080;28;20200;-88
2022/06/03 10:30:27;;;;;;;6.22;3.78;;;;;;;28.96;37.37;95903.59;5062262;28;20217;-88
2022/06/03 10:32:54;;;;;;;6.72;4.30;;;;;;;28.95;36.54;95901.19;5042435;28;20220;-87
2022/06/03 10:35:26;;;;;;;8.18;3.95;;;;;;;28.88;37.32;95896.25;5045388;28;20210;-88
2022/06/03 10:37:56;;;;;;;10.57;4.80;;;;;;;28.98;37.42;95917.16;5043513;28;20350;-87
2022/06/03 10:40:27;;;;;;;8.88;4.05;;;;;;;28.91;36.78;95912.22;5045507;28;20233;-87
2022/06/03 10:42:56;;;;;;;8.40;4.50;;;;;;;28.90;38.15;95910.59;5064416;28;20233;-87
2022/06/03 10:45:27;;;;;;;7.28;4.43;;;;;;;28.92;37.53;95913.81;5049232;28;20254;-88
2022/06/03 10:47:55;;;;;;;7.80;4.35;;;;;;;28.83;37.60;95916.00;5043438;28;20206;-88
2022/06/03 10:50:30;;;;;;;8.50;4.35;;;;;;;28.83;37.58;95917.94;5046557;28;20200;-87
2022/06/03 11:01:30;;;;;;;9.88;4.47;;;;;;;28.40;39.12;95922.34;5021321;28;20202;-88
2022/06/03 11:03:57;;;;;;;6.93;4.72;;;;;;;28.32;39.70;95916.94;5047966;28;20228;-88
2022/06/03 11:06:28;;;;;;;8.93;4.30;;;;;;;28.25;40.29;95917.53;5064174;28;20205;-88
2022/06/03 11:08:58;;;;;;;10.15;4.70;;;;;;;28.13;41.64;95921.16;5039440;28;20206;-88
2022/06/03 11:11:47;;;;;;;8.70;4.25;;;;;;;28.00;41.13;95916.78;5046038;28;20201;-87
2022/06/03 11:14:27;;;;;;;10.57;4.68;;;;;;;27.98;40.60;95926.66;5059350;28;20292;-88
2022/06/03 11:17:00;;;;;;;5.80;4.22;;;;;;;27.88;41.94;95932.69;5033923;28;20260;-88
2022/06/03 11:19:31;;;;;;;7.25;4.68;;;;;;;27.79;43.69;95939.19;5052830;28;20237;-87
2022/06/03 11:22:17;;;;;;;6.40;4.20;;;;;;;27.40;52.60;95937.94;5050396;28;20201;-87
2022/06/03 11:24:51;;;;;;;5.78;4.30;;;;;;;26.72;59.79;95953.44;5055065;28;20292;-87
2022/06/03 11:27:24;;;;;;;7.90;4.55;;;;;;;25.84;65.35;95945.50;5050480;28;20236;-88
2022/06/03 11:29:56;;;;;;;6.13;4.60;;;;;;;25.21;69.88;95942.63;5063863;28;20208;-88
2022/06/03 11:32:27;;;;;;;5.53;4.55;;;;;;;24.87;72.72;95953.81;5049191;28;20206;-87
2022/06/03 11:34:59;;;;;;;5.18;4.22;;;;;;;24.72;73.94;95962.63;5049735;28;20274;-89
2022/06/03 11:37:31;;;;;;;6.05;4.70;;;;;;;24.65;74.30;95979.72;5049110;28;20222;-88
2022/06/03 11:40:04;;;;;;;6.32;4.97;;;;;;;24.56;75.40;95975.34;5067727;28;20209;-88
2022/06/03 11:42:40;;;;;;;6.63;4.97;;;;;;;24.66;72.06;95992.38;5056703;28;20238;-88
2022/06/03 11:45:14;;;;;;;5.18;4.68;;;;;;;24.70;71.08;95998.03;5039267;28;20209;-89
2022/06/03 11:47:49;;;;;;;8.13;4.93;;;;;;;24.66;71.48;96017.22;5044035;28;20240;-87
2022/06/03 11:50:19;;;;;;;6.13;5.30;;;;;;;24.58;73.87;96029.09;5051054;28;20308;-87
2022/06/03 11:52:49;;;;;;;8.15;5.55;;;;;;;24.58;74.02;96042.91;5050776;28;20289;-86
2022/06/03 11:55:17;;;;;;;7.30;5.50;;;;;;;24.48;75.54;96063.38;5048722;28;20247;-86
2022/06/03 11:57:54;;;;;;;7.85;5.50;;;;;;;24.37;75.65;96062.06;5037478;28;20225;-87
2022/06/03 12:00:24;;;;;;;5.93;5.32;;;;;;;24.36;75.58;96059.63;5035425;28;20268;-86
2022/06/03 12:03:08;;;;;;;6.30;5.35;;;;;;;24.42;75.32;96063.81;5043693;28;20230;-87
2022/06/03 12:05:43;;;;;;;6.00;5.00;;;;;;;24.52;72.67;96069.84;5040042;28;20201;-86
2022/06/03 12:08:17;;;;;;;6.07;5.47;;;;;;;24.55;75.14;96062.88;5048830;28;20288;-85
2022/06/03 12:10:51;;;;;;;9.65;5.32;;;;;;;24.54;72.79;96077.81;5049621;28;20197;-87
2022/06/03 12:13:27;;;;;;;7.10;4.78;;;;;;;24.64;70.16;96083.00;5044296;28;20239;-87
2022/06/03 12:16:15;;;;;;;6.82;4.90;;;;;;;24.77;71.71;96098.56;5068948;28;20213;-86
2022/06/03 12:19:04;;;;;;;8.38;5.55;;;;;;;24.78;73.21;96083.63;5051314;28;20197;-89
2022/06/03 12:21:55;;;;;;;6.57;5.75;;;;;;;24.78;74.97;96089.13;5051942;28;20209;-88
2022/06/03 12:24:40;;;;;;;7.43;5.22;;;;;;;24.80;73.14;96097.09;5059648;28;20233;-89
2022/06/03 12:27:16;;;;;;;6.97;5.20;;;;;;;24.84;73.45;96112.66;5047218;28;20236;-89
2022/06/03 12:29:52;;;;;;;8.13;5.63;;;;;;;24.83;73.75;96105.56;5071296;28;20232;-88
2022/06/03 12:32:25;;;;;;;6.78;5.53;;;;;;;24.80;75.90;96102.63;5054989;28;20217;-88
2022/06/03 12:34:52;;;;;;;5.40;4.85;;;;;;;24.86;78.57;96129.72;5065535;28;20206;-88
2022/06/03 12:37:26;;;;;;;6.82;4.50;;;;;;;24.77;73.33;96128.94;5037116;28;20218;-89
2022/06/03 12:39:59;;;;;;;6.15;4.57;;;;;;;24.78;83.23;96133.31;5050852;28;20272;-87
2022/06/03 12:42:39;;;;;;;6.07;3.97;;;;;;;24.25;93.96;96135.56;5037252;28;20234;-87
2022/06/03 12:45:30;;;;;;;6.03;4.47;;;;;;;23.95;100.00;96146.38;5048760;28;20213;-87
2022/06/03 12:47:59;;;;;;;5.80;3.95;;;;;;;23.61;100.00;96160.84;5063465;28;20223;-88
2022/06/03 12:50:35;;;;;;;4.25;3.85;;;;;;;23.49;100.00;96162.56;5045639;28;20221;-87
2022/06/03 12:53:31;;;;;;;4.97;3.83;;;;;;;23.47;100.00;96173.88;5046514;28;20216;-88
2022/06/03 12:56:02;;;;;;;4.65;3.58;;;;;;;23.23;100.00;96176.97;5060844;28;20216;-87
2022/06/03 12:58:48;;;;;;;5.40;4.05;;;;;;;23.20;100.00;96174.06;5064691;28;20221;-88
2022/06/03 13:01:31;;;;;;;4.60;4.20;;;;;;;23.46;99.05;96185.22;5050006;28;20296;-87
2022/06/03 13:04:40;;;;;;;9.02;6.28;;;;;;;23.68;94.31;96190.69;5036007;28;20244;-88
2022/06/03 13:07:41;;;;;;;7.50;5.85;;;;;;;23.81;93.93;96200.00;5066446;28;20186;-88
2022/06/03 13:10:25;;;;;;;6.78;6.03;;;;;;;23.98;92.57;96214.69;5035551;28;20209;-87
2022/06/03 13:12:53;;;;;;;7.93;6.80;;;;;;;23.96;93.46;96225.22;5049675;28;20205;-87
2022/06/03 13:15:50;;;;;;;7.57;6.72;;;;;;;23.89;96.35;96249.69;5046970;28;20205;-88